Terminal Aerodrome Forecast
Issued by NWS

Home | Current Version | Previous Version | Text Only | Print | Product List | Glossary On
Versions: 1 2 3 4 5 6 7 8 9 10 11 12 13 14 15 16 17 18 19 20 21 22 23 24 25 26 27 28
000
FTUS45 KGJT 152339
TAFEGE
TAF
KEGE 152339Z 1600/1624 28008KT P6SM FEW100 SCT150
     FM160230 11003KT P6SM FEW200
     FM160900 00000KT P6SM SKC
     FM161900 25009KT P6SM FEW100 SCT250
      AMD LTD TO CLD VIS AND WIND 1601/1613=

USA.gov is the U.S. government's official web portal to all federal, state and local government web resources and services.